createdAt,value
2017-12-29T08:20:24.940Z,6.70
2017-12-29T08:22:51.728Z,6.60
2017-12-29T08:25:19.797Z,5.30
2017-12-29T08:27:50.343Z,5.50
2017-12-29T08:30:28.300Z,5.67
2017-12-29T08:33:01.185Z,5.57
2017-12-29T08:35:31.890Z,5.17
2017-12-29T08:38:04.286Z,5.10
2017-12-29T08:40:34.801Z,5.90
2017-12-29T08:43:03.496Z,6.07
2017-12-29T08:45:31.627Z,6.33
2017-12-29T08:47:58.499Z,5.50
2017-12-29T08:50:26.075Z,5.87
2017-12-29T08:52:57.253Z,6.10
2017-12-29T08:55:24.372Z,5.60
2017-12-29T08:57:56.976Z,6.23
2017-12-29T09:00:25.725Z,6.23
2017-12-29T09:02:55.336Z,6.10
2017-12-29T09:05:24.432Z,5.40
2017-12-29T09:07:56.386Z,5.37
2017-12-29T09:10:23.403Z,6.37
2017-12-29T09:12:57.723Z,6.23
2017-12-29T09:15:39.551Z,6.00
2017-12-29T09:18:08.690Z,6.10
2017-12-29T09:20:36.922Z,5.50
2017-12-29T09:23:13.972Z,5.60
2017-12-29T09:25:42.111Z,5.87
2017-12-29T09:28:11.522Z,5.50
2017-12-29T09:30:44.839Z,6.10
2017-12-29T09:33:12.158Z,5.80
2017-12-29T09:35:39.413Z,6.20
2017-12-29T09:38:06.839Z,6.13
2017-12-29T09:40:35.377Z,6.73
2017-12-29T09:43:04.041Z,5.73
2017-12-29T09:45:35.662Z,5.47
2017-12-29T09:48:03.530Z,6.17
2017-12-29T09:50:45.384Z,5.43
2017-12-29T09:53:12.577Z,5.60
2017-12-29T09:55:39.833Z,5.63
2017-12-29T09:58:14.890Z,5.73
2017-12-29T10:00:42.964Z,5.73
2017-12-29T10:03:10.667Z,5.70
2017-12-29T10:06:00.122Z,5.33
2017-12-29T10:08:27.257Z,5.43
2017-12-29T10:10:55.051Z,5.87
2017-12-29T10:13:21.958Z,5.80
2017-12-29T10:15:54.643Z,6.53
2017-12-29T10:18:21.798Z,5.20
2017-12-29T10:20:55.404Z,5.60
2017-12-29T10:23:22.765Z,5.40
2017-12-29T10:25:50.794Z,5.17
2017-12-29T10:28:17.610Z,5.03
2017-12-29T10:30:48.143Z,4.90
2017-12-29T10:33:15.131Z,6.00
2017-12-29T10:35:42.736Z,5.60
2017-12-29T10:38:10.770Z,5.17
2017-12-29T11:16:41.803Z,4.60
2017-12-29T11:19:09.366Z,4.50
2017-12-29T11:21:36.185Z,4.03
2017-12-29T11:24:04.239Z,4.23
2017-12-29T11:26:36.534Z,4.40
2017-12-29T11:29:03.866Z,5.03
2017-12-29T11:31:33.792Z,4.07
2017-12-29T11:34:01.008Z,4.10
2017-12-29T11:36:27.930Z,4.53
2017-12-29T11:39:05.746Z,4.10
2017-12-29T11:41:33.745Z,4.50
2017-12-29T11:44:00.722Z,4.30
2017-12-29T11:46:27.584Z,4.07
2017-12-29T11:48:56.544Z,4.30
2017-12-29T11:51:23.437Z,3.70
2017-12-29T11:53:50.702Z,3.97
2017-12-29T11:56:17.909Z,3.63
2017-12-29T11:58:45.876Z,4.60
2017-12-29T12:01:12.944Z,3.80
2017-12-29T12:03:40.043Z,3.73
2017-12-29T12:06:07.897Z,4.67
2017-12-29T12:08:36.135Z,3.60
2017-12-29T12:11:03.459Z,4.57
2017-12-29T12:13:32.905Z,3.83
2017-12-29T12:16:00.119Z,3.23
2017-12-29T12:18:27.886Z,3.33
2017-12-29T12:21:01.409Z,3.53
2017-12-29T12:23:29.807Z,3.50
2017-12-29T12:25:57.004Z,3.50
2017-12-29T12:28:24.011Z,3.40
2017-12-29T12:30:50.959Z,3.90
2017-12-29T12:33:18.425Z,3.93
2017-12-29T12:35:48.954Z,4.00
2017-12-29T12:38:16.604Z,5.13
2017-12-29T12:40:44.958Z,3.90
2017-12-29T12:43:12.083Z,3.90
2017-12-29T12:45:39.323Z,4.27
2017-12-29T12:48:08.102Z,4.40
2017-12-29T12:50:35.605Z,4.30
2017-12-29T12:53:08.555Z,4.20
2017-12-29T12:55:35.807Z,3.60
2017-12-29T12:58:05.516Z,4.50
2017-12-29T13:00:34.392Z,4.87
2017-12-29T13:03:12.419Z,4.00
2017-12-29T13:05:39.868Z,4.07
2017-12-29T13:08:17.699Z,4.43
2017-12-29T14:12:13.338Z,3.95
2017-12-29T14:14:41.645Z,4.13
2017-12-29T14:17:08.912Z,4.43
2017-12-29T14:19:37.310Z,4.82
2017-12-29T14:22:04.077Z,4.30
2017-12-29T14:24:41.646Z,5.20
2017-12-29T14:27:09.032Z,4.75
2017-12-29T14:29:36.064Z,4.50
2017-12-29T14:32:02.846Z,4.97
2017-12-29T14:34:31.643Z,4.93
2017-12-29T14:36:58.912Z,4.45
2017-12-29T14:39:27.098Z,5.25
2017-12-29T14:42:01.268Z,4.80
2017-12-29T14:44:30.946Z,4.78
2017-12-29T14:46:57.935Z,5.65
2017-12-29T14:49:24.817Z,4.72
2017-12-29T14:51:51.699Z,5.03
2017-12-29T14:54:19.830Z,5.53
2017-12-29T14:56:46.909Z,5.55
2017-12-29T14:59:13.934Z,4.85
2017-12-29T15:01:40.973Z,6.22
2017-12-29T15:04:07.934Z,5.65
2017-12-29T15:06:34.813Z,5.18
2017-12-29T15:09:01.756Z,6.03
2017-12-29T15:11:29.146Z,5.72
2017-12-29T15:13:55.954Z,6.12
2017-12-29T15:16:23.692Z,6.20
2017-12-29T15:18:50.510Z,5.20
2017-12-29T15:21:17.201Z,6.55
2017-12-29T15:23:44.009Z,5.18
2017-12-29T15:26:10.918Z,5.90
2017-12-29T15:28:38.392Z,5.05
2017-12-29T15:31:05.091Z,5.67
2017-12-29T15:33:32.138Z,5.80
2017-12-29T15:35:58.883Z,5.32
2017-12-29T15:38:25.667Z,6.82
2017-12-29T15:40:52.407Z,6.10
2017-12-29T15:43:19.409Z,6.87
2017-12-29T15:45:46.314Z,5.47
2017-12-29T15:48:13.596Z,7.07
2017-12-29T15:50:41.337Z,5.70
2017-12-29T15:53:09.368Z,5.83
2017-12-29T15:55:36.261Z,6.30
2017-12-29T15:58:03.387Z,5.85
2017-12-29T16:00:30.392Z,6.20
2017-12-29T16:02:57.228Z,6.15
2017-12-29T16:05:24.453Z,6.37
2017-12-29T16:07:51.444Z,6.28
2017-12-29T16:10:18.572Z,6.13
2017-12-29T16:12:45.369Z,6.40
2017-12-29T16:15:12.413Z,7.37
2017-12-29T16:17:40.011Z,7.68
2017-12-29T16:20:06.903Z,7.30
2017-12-29T16:22:34.175Z,8.13
2017-12-29T16:25:01.806Z,7.67
2017-12-29T16:27:28.883Z,6.55
2017-12-29T16:29:56.166Z,7.45
2017-12-29T16:32:23.319Z,7.37
2017-12-29T16:34:50.290Z,6.95
2017-12-29T16:37:17.343Z,7.00
2017-12-29T16:39:44.126Z,6.67
2017-12-29T16:42:10.944Z,8.17
2017-12-29T16:44:37.708Z,8.50
2017-12-29T16:47:05.023Z,8.88
2017-12-29T16:49:31.698Z,8.77
2017-12-29T16:51:59.825Z,9.52
2017-12-29T16:54:26.483Z,8.03
2017-12-29T16:56:53.428Z,7.17
2017-12-29T16:59:20.653Z,8.70
2017-12-29T17:01:47.618Z,8.23
2017-12-29T17:04:14.365Z,6.97
2017-12-29T17:06:43.170Z,6.00
2017-12-29T17:09:12.932Z,6.33
2017-12-29T17:11:40.893Z,4.93
2017-12-29T17:14:08.536Z,4.57
2017-12-29T17:19:24.466Z,5.03
2017-12-29T17:24:34.117Z,4.40
2017-12-29T17:27:02.193Z,4.37
2017-12-29T17:30:12.105Z,5.03
2017-12-29T17:32:55.981Z,5.40
2017-12-29T17:35:23.012Z,4.67
2017-12-29T17:37:49.750Z,4.50
2017-12-29T17:40:17.518Z,5.13
2017-12-29T17:42:44.842Z,5.37
2017-12-29T17:45:37.744Z,4.80
2017-12-29T17:48:05.272Z,5.20
2017-12-29T17:50:54.686Z,5.27
2017-12-29T17:56:04.437Z,5.57
2017-12-29T18:01:18.436Z,5.10
2017-12-29T18:03:45.243Z,6.47
2017-12-29T18:06:12.159Z,5.80
2017-12-29T18:08:39.813Z,6.90
2017-12-29T18:53:00.459Z,3.60
2017-12-29T18:55:29.643Z,4.50
2017-12-29T18:57:57.627Z,4.47
2017-12-29T19:00:35.061Z,4.00
2017-12-29T19:03:05.505Z,3.97
2017-12-29T19:05:32.259Z,4.40
2017-12-29T19:10:50.868Z,4.43
2017-12-29T19:13:28.589Z,5.93
2017-12-29T19:15:56.826Z,4.57
2017-12-29T19:18:34.877Z,4.10
2017-12-29T19:23:38.518Z,3.47
2017-12-29T19:26:05.285Z,3.27
2017-12-29T19:28:38.720Z,3.80
2017-12-29T19:31:05.755Z,5.70
2017-12-29T19:33:55.721Z,4.30
2017-12-29T19:39:16.539Z,4.13
2017-12-29T19:41:44.615Z,4.53
2017-12-29T19:44:11.670Z,3.93
2017-12-29T19:46:38.590Z,4.40
2017-12-29T19:49:08.946Z,4.40
2017-12-29T19:51:36.096Z,4.53
2017-12-29T19:54:05.177Z,5.23
2017-12-29T19:56:32.005Z,5.30
2017-12-29T19:58:58.913Z,5.30
2017-12-29T20:01:25.675Z,4.90
2017-12-29T20:03:52.655Z,4.70
2017-12-29T20:06:22.486Z,4.20
2017-12-29T20:08:54.000Z,5.37
2017-12-29T20:11:21.076Z,5.70
2017-12-29T20:16:21.810Z,5.47
2017-12-29T20:18:49.041Z,5.33
2017-12-29T20:21:16.007Z,6.73
2017-12-29T20:23:42.750Z,5.57
2017-12-29T20:26:09.489Z,5.37
2017-12-29T20:28:36.521Z,4.67
2017-12-29T20:31:03.277Z,5.80
2017-12-29T20:33:30.156Z,5.90
2017-12-29T20:35:58.826Z,5.37
2017-12-29T20:38:42.262Z,5.93
2017-12-29T20:41:16.236Z,5.13
2017-12-29T20:47:03.689Z,6.70
2017-12-29T20:49:30.519Z,7.17
2017-12-29T20:54:37.151Z,7.03
2017-12-29T20:57:03.884Z,8.10
2017-12-29T20:59:36.104Z,7.70
2017-12-29T21:02:03.736Z,9.93
2017-12-29T21:04:32.931Z,10.40
2017-12-29T21:07:13.906Z,9.80
2017-12-29T21:12:16.556Z,11.67
2017-12-29T21:14:57.651Z,11.40
2017-12-29T21:17:26.889Z,10.90
2017-12-29T21:19:54.042Z,12.00
2017-12-29T21:22:46.476Z,12.17
2017-12-29T21:25:25.591Z,11.90
2017-12-29T21:28:04.406Z,11.30
2017-12-29T21:30:34.341Z,11.37
2017-12-29T21:33:14.056Z,11.50
2017-12-29T21:35:40.791Z,10.73
2017-12-29T21:40:41.862Z,10.80
2017-12-29T21:43:09.997Z,11.90
2017-12-29T21:45:57.882Z,10.63
2017-12-29T21:48:25.911Z,11.40
2017-12-29T21:50:52.602Z,10.90
2017-12-29T21:53:20.538Z,9.90
2017-12-29T21:55:52.613Z,10.80
2017-12-29T22:00:57.279Z,9.43
2017-12-29T22:03:33.038Z,8.77
2017-12-29T22:06:05.925Z,9.00
2017-12-29T22:08:35.469Z,9.67
2017-12-29T22:11:02.424Z,7.40
2017-12-29T22:16:02.029Z,7.03
2017-12-29T22:18:29.634Z,7.87
2017-12-29T22:20:57.945Z,7.27
2017-12-29T22:23:27.241Z,7.67
2017-12-29T22:25:54.776Z,7.13
2017-12-29T22:28:21.912Z,6.50
2017-12-29T22:30:51.206Z,6.17
2017-12-29T22:36:49.760Z,5.40
2017-12-29T22:39:17.270Z,4.40
2017-12-29T22:41:44.366Z,5.03
2017-12-29T22:44:11.800Z,4.53
2017-12-29T22:46:39.317Z,3.73
2017-12-29T22:49:06.272Z,3.70
2017-12-29T22:51:33.427Z,4.03
2017-12-29T22:54:00.282Z,3.87
2017-12-29T22:56:28.637Z,4.37
2017-12-29T22:58:56.435Z,3.60
2017-12-29T23:01:24.358Z,3.20
2017-12-29T23:03:51.962Z,3.97
2017-12-29T23:06:19.559Z,3.20
2017-12-29T23:08:54.575Z,3.27
2017-12-29T23:11:34.349Z,3.80
2017-12-29T23:14:12.984Z,3.10
2017-12-29T23:16:47.399Z,3.60
2017-12-29T23:19:25.346Z,2.90
2017-12-29T23:21:53.330Z,2.83
2017-12-29T23:24:41.917Z,2.73
2017-12-29T23:29:43.030Z,3.17
2017-12-29T23:32:09.731Z,4.40
2017-12-29T23:34:38.047Z,2.67
2017-12-29T23:37:06.859Z,3.73
2017-12-29T23:39:35.162Z,2.67
2017-12-29T23:42:02.530Z,3.30
2017-12-29T23:44:29.587Z,3.00
2017-12-29T23:46:57.846Z,2.83
2017-12-29T23:49:24.625Z,3.10
2017-12-29T23:51:53.672Z,2.63
2017-12-29T23:54:24.783Z,3.10
2017-12-29T23:56:53.683Z,2.90
2017-12-29T23:59:23.932Z,2.80
